»·PEaware :: N55335 KPOC-KOXR

N55335 :: KPOC-KOXR

FLIGHT INFORMATION

Flight Status: Arrived
Operator: Privately registered:
United States
More flights under this callsign
Pilot: John N. (18861)
Aircraft: Unknown
(PIPA)
More flights by this aircraft type
Origin: KPOC Brackett
United States
Destination: KOXR Oxnard
United States
More flights between these airports :: More routes between these airports
Route: PRADO V16 PDZ V186 FIM
File this flight plan on PilotEdge
Remarks: ONTP14
Altitude:
(Current/Filed)
6,000ft
Speed:
(Current/Filed)
185kts
Departed: 22-Jan-21 10:12 AM
Arrived: 22-Jan-21 10:46 AM
Distance/Time
Traveled:
71nm/0:34
Distance/Time
To Go:
Arrived

Flight Plot

Page will automatically refresh every two minutes.


Map Options




Map Legend


Flown Route
Filed Route
Departure Airport
Arrival Airport
Navaid (VOR, NDB)
Fix

Horizontal Profiles

Position Reports

Time Latitude Longitude Heading Altitude Ground
Speed
22-Jan-21 09:52 34.093024 -117.785271 96 987ft 0kts
22-Jan-21 09:53 34.093024 -117.785271 96 987ft 0kts
22-Jan-21 09:53 34.093024 -117.785271 96 987ft 0kts
22-Jan-21 09:55 34.093024 -117.785271 96 987ft 0kts
22-Jan-21 09:55 34.093024 -117.785271 96 987ft 0kts
22-Jan-21 09:57 34.092523 -117.780221 107 1001ft 21kts
22-Jan-21 09:57 34.092323 -117.775898 56 1012ft 15kts
22-Jan-21 09:58 34.092407 -117.774955 135 1015ft 0kts
22-Jan-21 10:00 34.092407 -117.774955 135 1015ft 0kts
22-Jan-21 10:00 34.092407 -117.774955 135 1015ft 0kts
22-Jan-21 10:01 34.092407 -117.774955 135 1015ft 0kts
22-Jan-21 10:02 34.092407 -117.774955 135 1015ft 0kts
22-Jan-21 10:03 34.092407 -117.774955 135 1015ft 0kts
22-Jan-21 10:04 34.092407 -117.774955 135 1015ft 0kts
22-Jan-21 10:05 34.092407 -117.774955 135 1015ft 0kts
22-Jan-21 10:06 34.092407 -117.774955 135 1015ft 0kts
22-Jan-21 10:07 34.092407 -117.774955 135 1015ft 0kts
22-Jan-21 10:08 34.092407 -117.774955 135 1015ft 0kts
22-Jan-21 10:09 34.092407 -117.774955 135 1015ft 0kts
22-Jan-21 10:10 34.092245 -117.774825 158 1015ft 7kts
22-Jan-21 10:11 34.093782 -117.793154 276 1402ft 94kts
22-Jan-21 10:12 34.074021 -117.791841 142 2319ft 127kts
22-Jan-21 10:13 34.037806 -117.780714 179 3128ft 149kts
22-Jan-21 10:14 33.995289 -117.781539 179 3936ft 157kts
22-Jan-21 10:15 33.953621 -117.790003 235 4701ft 160kts
22-Jan-21 10:16 33.966063 -117.836287 301 5470ft 154kts
22-Jan-21 10:17 33.984780 -117.878482 299 5982ft 166kts
22-Jan-21 10:18 34.004003 -117.922151 299 5986ft 186kts
22-Jan-21 10:19 34.024818 -117.969504 299 5987ft 188kts
22-Jan-21 10:20 34.044956 -118.015361 299 5992ft 189kts
22-Jan-21 10:21 34.064528 -118.059988 298 6031ft 187kts
22-Jan-21 10:22 34.084612 -118.105863 298 6034ft 188kts
22-Jan-21 10:23 34.105320 -118.153238 299 6029ft 189kts
22-Jan-21 10:24 34.124169 -118.203929 282 6025ft 192kts
22-Jan-21 10:25 34.134271 -118.267304 282 6016ft 194kts
22-Jan-21 10:26 34.146055 -118.338338 282 6010ft 197kts
22-Jan-21 10:27 34.158286 -118.412591 282 6011ft 197kts
22-Jan-21 10:28 34.169831 -118.484043 282 6012ft 196kts
22-Jan-21 10:29 34.182014 -118.559780 282 6013ft 195kts
22-Jan-21 10:30 34.186605 -118.629244 276 6013ft 183kts
22-Jan-21 10:31 34.189615 -118.682552 275 5894ft 143kts
22-Jan-21 10:32 34.191908 -118.733202 274 5009ft 154kts
22-Jan-21 10:33 34.193967 -118.782398 274 4508ft 124kts
22-Jan-21 10:34 34.195657 -118.822666 273 4510ft 138kts
22-Jan-21 10:35 34.197508 -118.867845 274 4486ft 109kts
22-Jan-21 10:36 34.198093 -118.906285 272 4255ft 128kts
22-Jan-21 10:37 34.198567 -118.951097 272 3745ft 115kts
22-Jan-21 10:38 34.198898 -118.985534 271 3460ft 109kts
22-Jan-21 10:39 34.199233 -119.022824 271 2906ft 110kts
22-Jan-21 10:40 34.199559 -119.059700 270 2304ft 109kts
22-Jan-21 10:41 34.199882 -119.096021 270 1728ft 107kts
22-Jan-21 10:42 34.200176 -119.131885 270 1161ft 106kts
22-Jan-21 10:43 34.200447 -119.165983 270 623ft 91kts
22-Jan-21 10:44 34.200739 -119.193234 270 157ft 73kts
22-Jan-21 10:45 34.200347 -119.207158 192 40ft 8kts
22-Jan-21 10:46 34.199672 -119.207111 134 40ft 7kts

Navigation Log

Ident Type
Flight plan parsing failed, navigation log unavailable